Lake City, CO (81235)

11:01 AM MDT on September 04, 2015 (GMT -0600)
Lake City Heights | | Change Station
CLOSE
Current Station
Personal Weather Station
Location: Lake City, CO
Elevation: 8858 ft
Nearby Weather Stations

Elev 8858 ft 38.02 °N, 107.31 °W | Updated 7 seconds ago

Overcast
Overcast
55.0 °F
Feels Like 55.0 °F
N
0.0
Wind Variable Wind from NE
Gusts 0.0 mph

Today
High -- | Low -- °F
--% Chance of Precip.
Yesterday
High -- | Low -- °F
Precip. -- in
6:41 AM 7:34 PM
Waning Gibbous, 58% visible
Pressure 30.33 in
Visibility 10.0 miles
Clouds Mostly Cloudy 6000 ft
Overcast 7500 ft
Dew Point 33 °F
Humidity 43%
Rainfall 0.00 in
Snow Depth Not available.
UV 2 out of 12
Pollen 10.80 out of 12
Air Quality Not available.
Flu Activity Not available.
METAR KTEX 041655Z AUTO 11006KT 10SM -VCTSDZ BKN060 OVC075 13/10 A3033 RMK AO2 LTG DSNT NW T01260100
Pressure 30.33 in
Visibility 10.0 miles
Clouds Mostly Cloudy 6000 ft
Overcast 7500 ft
Dew Point 33 °F
Humidity 43%
Rainfall 0.00 in
Snow Depth Not available.
UV 2 out of 12
Pollen 10.80 out of 12
Air Quality Not available.
Flu Activity Not available.
METAR KTEX 041655Z AUTO 11006KT 10SM -VCTSDZ BKN060 OVC075 13/10 A3033 RMK AO2 LTG DSNT NW T01260100

10-Day Weather Forecast

×

Almanac

Astronomy

Sep. 04, 2015 Rise Set
Actual Time
Civil Twilight
Nautical Twilight
Astronomical Twilight
Moon
Length of Visible Light
Length of Day
Tomorrow will be .
, % of the Moon is Illuminated

Today's Extremes

State Highs State Lows

Community

WunderPhotos

Upload Photos

1,852,230 photos uploaded!

WunderBlogs® & News

Nearby

Air Quality

  Air Quality AQ Index Pollutant
Not available.

Snow Depth

Station Depth Elevation

Earthquake Activity

City Distance Mag. Time & Date
Minimum magnitude displayed is 2.5.

Coastal Water Temperatures

Place Temperature

Stations

Nearby Weather Stations

Station Location Temp. Windchill Dew Point Humidity Wind Precip. Elev Updated Type